sensor_id;sensor_type;location;lat;lon;timestamp;P1;durP1;ratioP1;P2;durP2;ratioP2
77451;SDS011;66537;52.370;4.832;2023-04-25T00:00:13;17.53;;;3.23;;
77451;SDS011;66537;52.370;4.832;2023-04-25T00:02:39;17.00;;;3.50;;
77451;SDS011;66537;52.370;4.832;2023-04-25T00:05:04;19.27;;;3.55;;
77451;SDS011;66537;52.370;4.832;2023-04-25T00:07:30;14.70;;;3.10;;
77451;SDS011;66537;52.370;4.832;2023-04-25T00:09:57;19.00;;;3.10;;
77451;SDS011;66537;52.370;4.832;2023-04-25T00:12:22;11.88;;;2.15;;
77451;SDS011;66537;52.370;4.832;2023-04-25T00:14:48;19.27;;;2.40;;
77451;SDS011;66537;52.370;4.832;2023-04-25T00:17:14;11.45;;;2.67;;
77451;SDS011;66537;52.370;4.832;2023-04-25T00:19:41;16.20;;;2.15;;
77451;SDS011;66537;52.370;4.832;2023-04-25T00:22:06;25.65;;;2.72;;
77451;SDS011;66537;52.370;4.832;2023-04-25T00:24:32;20.02;;;2.78;;
77451;SDS011;66537;52.370;4.832;2023-04-25T00:26:57;16.37;;;1.73;;
77451;SDS011;66537;52.370;4.832;2023-04-25T00:29:22;20.10;;;2.13;;
77451;SDS011;66537;52.370;4.832;2023-04-25T00:31:48;10.03;;;2.33;;
77451;SDS011;66537;52.370;4.832;2023-04-25T00:34:13;17.00;;;2.40;;
77451;SDS011;66537;52.370;4.832;2023-04-25T00:36:38;15.93;;;2.33;;
77451;SDS011;66537;52.370;4.832;2023-04-25T00:39:04;15.68;;;2.28;;
77451;SDS011;66537;52.370;4.832;2023-04-25T00:41:29;13.18;;;2.85;;
77451;SDS011;66537;52.370;4.832;2023-04-25T00:43:55;14.77;;;2.45;;
77451;SDS011;66537;52.370;4.832;2023-04-25T00:46:21;14.40;;;3.38;;
77451;SDS011;66537;52.370;4.832;2023-04-25T00:48:47;18.93;;;3.30;;
77451;SDS011;66537;52.370;4.832;2023-04-25T00:51:19;15.70;;;2.53;;
77451;SDS011;66537;52.370;4.832;2023-04-25T00:53:47;15.40;;;3.80;;
77451;SDS011;66537;52.370;4.832;2023-04-25T00:56:14;17.02;;;3.03;;
77451;SDS011;66537;52.370;4.832;2023-04-25T00:58:40;17.05;;;3.08;;
77451;SDS011;66537;52.370;4.832;2023-04-25T01:01:07;15.57;;;2.70;;
77451;SDS011;66537;52.370;4.832;2023-04-25T01:03:33;18.50;;;3.00;;
77451;SDS011;66537;52.370;4.832;2023-04-25T01:06:00;16.80;;;3.17;;
77451;SDS011;66537;52.370;4.832;2023-04-25T01:08:27;11.80;;;2.92;;
77451;SDS011;66537;52.370;4.832;2023-04-25T01:10:52;21.33;;;3.30;;
77451;SDS011;66537;52.370;4.832;2023-04-25T01:13:18;14.07;;;2.20;;
77451;SDS011;66537;52.370;4.832;2023-04-25T01:15:43;15.80;;;2.58;;
77451;SDS011;66537;52.370;4.832;2023-04-25T01:18:09;13.10;;;1.98;;
77451;SDS011;66537;52.370;4.832;2023-04-25T01:20:34;15.88;;;2.10;;
77451;SDS011;66537;52.370;4.832;2023-04-25T01:23:02;11.73;;;2.47;;
77451;SDS011;66537;52.370;4.832;2023-04-25T01:25:28;19.08;;;2.25;;
77451;SDS011;66537;52.370;4.832;2023-04-25T01:27:54;15.20;;;1.90;;
77451;SDS011;66537;52.370;4.832;2023-04-25T01:30:20;13.35;;;2.10;;
77451;SDS011;66537;52.370;4.832;2023-04-25T01:32:45;12.00;;;2.03;;
77451;SDS011;66537;52.370;4.832;2023-04-25T01:35:12;14.45;;;2.08;;
77451;SDS011;66537;52.370;4.832;2023-04-25T01:37:41;14.35;;;2.13;;
77451;SDS011;66537;52.370;4.832;2023-04-25T01:40:08;18.02;;;2.35;;
77451;SDS011;66537;52.370;4.832;2023-04-25T01:42:34;19.33;;;2.42;;
77451;SDS011;66537;52.370;4.832;2023-04-25T01:45:01;16.10;;;2.50;;
77451;SDS011;66537;52.370;4.832;2023-04-25T01:47:27;18.80;;;2.90;;
77451;SDS011;66537;52.370;4.832;2023-04-25T01:49:53;10.90;;;1.83;;
77451;SDS011;66537;52.370;4.832;2023-04-25T01:52:18;20.50;;;2.50;;
77451;SDS011;66537;52.370;4.832;2023-04-25T01:54:43;16.10;;;3.10;;
77451;SDS011;66537;52.370;4.832;2023-04-25T01:57:12;13.23;;;1.88;;
77451;SDS011;66537;52.370;4.832;2023-04-25T01:59:38;14.18;;;2.00;;
77451;SDS011;66537;52.370;4.832;2023-04-25T02:02:04;14.48;;;2.25;;
77451;SDS011;66537;52.370;4.832;2023-04-25T02:04:30;15.02;;;2.10;;
77451;SDS011;66537;52.370;4.832;2023-04-25T02:06:55;13.85;;;2.05;;
77451;SDS011;66537;52.370;4.832;2023-04-25T02:09:20;13.70;;;2.50;;
77451;SDS011;66537;52.370;4.832;2023-04-25T02:11:46;18.90;;;2.28;;
77451;SDS011;66537;52.370;4.832;2023-04-25T02:14:11;19.65;;;2.35;;
77451;SDS011;66537;52.370;4.832;2023-04-25T02:16:37;16.30;;;1.77;;
77451;SDS011;66537;52.370;4.832;2023-04-25T02:19:03;10.85;;;1.50;;
77451;SDS011;66537;52.370;4.832;2023-04-25T02:21:28;15.02;;;1.80;;
77451;SDS011;66537;52.370;4.832;2023-04-25T02:23:55;20.30;;;2.35;;
77451;SDS011;66537;52.370;4.832;2023-04-25T02:26:20;14.95;;;2.35;;
77451;SDS011;66537;52.370;4.832;2023-04-25T02:28:46;13.23;;;2.60;;
77451;SDS011;66537;52.370;4.832;2023-04-25T02:31:11;15.30;;;2.30;;
77451;SDS011;66537;52.370;4.832;2023-04-25T02:33:37;17.45;;;2.33;;
77451;SDS011;66537;52.370;4.832;2023-04-25T02:36:02;13.13;;;1.90;;
77451;SDS011;66537;52.370;4.832;2023-04-25T02:38:28;9.60;;;1.20;;
77451;SDS011;66537;52.370;4.832;2023-04-25T02:40:53;11.27;;;1.93;;
77451;SDS011;66537;52.370;4.832;2023-04-25T02:43:19;7.00;;;0.90;;
77451;SDS011;66537;52.370;4.832;2023-04-25T02:45:45;7.97;;;0.98;;
77451;SDS011;66537;52.370;4.832;2023-04-25T02:48:10;9.80;;;1.88;;
77451;SDS011;66537;52.370;4.832;2023-04-25T02:50:36;10.93;;;1.52;;
77451;SDS011;66537;52.370;4.832;2023-04-25T02:53:01;11.00;;;1.42;;
77451;SDS011;66537;52.370;4.832;2023-04-25T02:55:26;8.73;;;1.03;;
77451;SDS011;66537;52.370;4.832;2023-04-25T02:57:52;8.83;;;1.40;;
77451;SDS011;66537;52.370;4.832;2023-04-25T03:00:20;11.57;;;1.52;;
77451;SDS011;66537;52.370;4.832;2023-04-25T03:02:45;9.38;;;1.20;;
77451;SDS011;66537;52.370;4.832;2023-04-25T03:05:11;9.60;;;1.50;;
77451;SDS011;66537;52.370;4.832;2023-04-25T03:07:36;8.10;;;1.10;;
77451;SDS011;66537;52.370;4.832;2023-04-25T03:10:01;11.30;;;1.73;;
77451;SDS011;66537;52.370;4.832;2023-04-25T03:12:27;10.10;;;1.30;;
77451;SDS011;66537;52.370;4.832;2023-04-25T03:14:52;18.23;;;1.60;;
77451;SDS011;66537;52.370;4.832;2023-04-25T03:17:17;10.63;;;1.43;;
77451;SDS011;66537;52.370;4.832;2023-04-25T03:19:43;11.87;;;1.33;;
77451;SDS011;66537;52.370;4.832;2023-04-25T03:22:08;14.73;;;1.03;;
77451;SDS011;66537;52.370;4.832;2023-04-25T03:24:33;13.47;;;1.90;;
77451;SDS011;66537;52.370;4.832;2023-04-25T03:27:00;6.85;;;0.82;;
77451;SDS011;66537;52.370;4.832;2023-04-25T03:29:25;16.90;;;2.50;;
77451;SDS011;66537;52.370;4.832;2023-04-25T03:31:52;10.63;;;1.73;;
77451;SDS011;66537;52.370;4.832;2023-04-25T03:34:17;8.25;;;1.70;;
77451;SDS011;66537;52.370;4.832;2023-04-25T03:36:43;6.77;;;1.57;;
77451;SDS011;66537;52.370;4.832;2023-04-25T03:39:08;9.90;;;1.92;;
77451;SDS011;66537;52.370;4.832;2023-04-25T03:41:34;10.97;;;2.40;;
77451;SDS011;66537;52.370;4.832;2023-04-25T03:43:59;10.13;;;1.63;;
77451;SDS011;66537;52.370;4.832;2023-04-25T03:46:24;17.57;;;1.80;;
77451;SDS011;66537;52.370;4.832;2023-04-25T03:48:50;7.43;;;1.30;;
77451;SDS011;66537;52.370;4.832;2023-04-25T03:51:15;8.33;;;1.30;;
77451;SDS011;66537;52.370;4.832;2023-04-25T03:53:40;10.43;;;2.07;;
77451;SDS011;66537;52.370;4.832;2023-04-25T03:56:06;14.83;;;2.10;;
77451;SDS011;66537;52.370;4.832;2023-04-25T03:58:31;12.60;;;2.08;;
77451;SDS011;66537;52.370;4.832;2023-04-25T04:00:56;12.18;;;1.70;;
77451;SDS011;66537;52.370;4.832;2023-04-25T04:03:22;8.38;;;2.08;;
77451;SDS011;66537;52.370;4.832;2023-04-25T04:05:47;11.60;;;2.07;;
77451;SDS011;66537;52.370;4.832;2023-04-25T04:08:13;6.38;;;1.42;;
77451;SDS011;66537;52.370;4.832;2023-04-25T04:10:38;12.77;;;1.73;;
77451;SDS011;66537;52.370;4.832;2023-04-25T04:13:03;8.20;;;1.10;;
77451;SDS011;66537;52.370;4.832;2023-04-25T04:15:29;12.60;;;1.90;;
77451;SDS011;66537;52.370;4.832;2023-04-25T04:17:54;10.30;;;1.33;;
77451;SDS011;66537;52.370;4.832;2023-04-25T04:20:19;10.93;;;1.85;;
77451;SDS011;66537;52.370;4.832;2023-04-25T04:22:45;9.80;;;1.30;;
77451;SDS011;66537;52.370;4.832;2023-04-25T04:25:10;11.73;;;1.33;;
77451;SDS011;66537;52.370;4.832;2023-04-25T04:27:36;9.52;;;1.73;;
77451;SDS011;66537;52.370;4.832;2023-04-25T04:30:02;10.65;;;2.05;;
77451;SDS011;66537;52.370;4.832;2023-04-25T04:32:28;10.80;;;1.55;;
77451;SDS011;66537;52.370;4.832;2023-04-25T04:34:55;14.65;;;1.80;;
77451;SDS011;66537;52.370;4.832;2023-04-25T04:37:20;9.52;;;2.20;;
77451;SDS011;66537;52.370;4.832;2023-04-25T04:39:46;13.50;;;1.55;;
77451;SDS011;66537;52.370;4.832;2023-04-25T04:42:12;14.20;;;1.48;;
77451;SDS011;66537;52.370;4.832;2023-04-25T04:44:37;11.77;;;1.67;;
77451;SDS011;66537;52.370;4.832;2023-04-25T04:47:04;13.15;;;2.10;;
77451;SDS011;66537;52.370;4.832;2023-04-25T04:49:31;9.10;;;1.40;;
77451;SDS011;66537;52.370;4.832;2023-04-25T04:51:56;9.68;;;1.30;;
77451;SDS011;66537;52.370;4.832;2023-04-25T04:54:22;11.82;;;1.60;;
77451;SDS011;66537;52.370;4.832;2023-04-25T04:56:47;15.17;;;1.90;;
77451;SDS011;66537;52.370;4.832;2023-04-25T04:59:12;9.30;;;1.20;;
77451;SDS011;66537;52.370;4.832;2023-04-25T05:01:38;10.63;;;1.73;;
77451;SDS011;66537;52.370;4.832;2023-04-25T05:04:03;10.90;;;2.27;;
77451;SDS011;66537;52.370;4.832;2023-04-25T05:06:29;13.10;;;1.48;;
77451;SDS011;66537;52.370;4.832;2023-04-25T05:08:55;10.68;;;1.83;;
77451;SDS011;66537;52.370;4.832;2023-04-25T05:11:21;11.43;;;1.75;;
77451;SDS011;66537;52.370;4.832;2023-04-25T05:13:51;14.27;;;2.30;;
77451;SDS011;66537;52.370;4.832;2023-04-25T05:16:17;10.27;;;1.90;;
77451;SDS011;66537;52.370;4.832;2023-04-25T05:18:43;15.48;;;1.90;;
77451;SDS011;66537;52.370;4.832;2023-04-25T05:21:08;14.98;;;1.70;;
77451;SDS011;66537;52.370;4.832;2023-04-25T05:23:33;13.73;;;1.50;;
77451;SDS011;66537;52.370;4.832;2023-04-25T05:25:59;11.48;;;1.70;;
77451;SDS011;66537;52.370;4.832;2023-04-25T05:28:25;15.05;;;2.25;;
77451;SDS011;66537;52.370;4.832;2023-04-25T05:30:50;11.98;;;1.33;;
77451;SDS011;66537;52.370;4.832;2023-04-25T05:33:16;17.02;;;1.83;;
77451;SDS011;66537;52.370;4.832;2023-04-25T05:35:41;13.05;;;1.10;;
77451;SDS011;66537;52.370;4.832;2023-04-25T05:38:06;14.32;;;1.60;;
77451;SDS011;66537;52.370;4.832;2023-04-25T05:40:32;12.23;;;1.33;;
77451;SDS011;66537;52.370;4.832;2023-04-25T05:42:57;12.13;;;1.67;;
77451;SDS011;66537;52.370;4.832;2023-04-25T05:45:22;12.77;;;1.50;;
77451;SDS011;66537;52.370;4.832;2023-04-25T05:47:48;17.00;;;2.37;;
77451;SDS011;66537;52.370;4.832;2023-04-25T05:50:13;11.13;;;1.55;;
77451;SDS011;66537;52.370;4.832;2023-04-25T05:52:39;14.95;;;1.92;;
77451;SDS011;66537;52.370;4.832;2023-04-25T05:55:05;16.17;;;1.80;;
77451;SDS011;66537;52.370;4.832;2023-04-25T05:57:30;19.30;;;1.85;;
77451;SDS011;66537;52.370;4.832;2023-04-25T05:59:56;9.85;;;1.70;;
77451;SDS011;66537;52.370;4.832;2023-04-25T06:02:21;10.50;;;1.50;;
77451;SDS011;66537;52.370;4.832;2023-04-25T06:04:49;14.80;;;1.70;;
77451;SDS011;66537;52.370;4.832;2023-04-25T06:07:14;13.48;;;1.73;;
77451;SDS011;66537;52.370;4.832;2023-04-25T06:09:40;12.93;;;1.67;;
77451;SDS011;66537;52.370;4.832;2023-04-25T06:12:05;14.05;;;1.92;;
77451;SDS011;66537;52.370;4.832;2023-04-25T06:14:32;13.00;;;1.40;;
77451;SDS011;66537;52.370;4.832;2023-04-25T06:16:58;13.00;;;1.60;;
77451;SDS011;66537;52.370;4.832;2023-04-25T06:19:24;14.77;;;1.30;;
77451;SDS011;66537;52.370;4.832;2023-04-25T06:21:49;11.17;;;1.40;;
77451;SDS011;66537;52.370;4.832;2023-04-25T06:24:14;12.50;;;1.63;;
77451;SDS011;66537;52.370;4.832;2023-04-25T06:26:39;4.37;;;0.73;;
77451;SDS011;66537;52.370;4.832;2023-04-25T06:29:05;6.90;;;0.80;;
77451;SDS011;66537;52.370;4.832;2023-04-25T06:31:30;12.00;;;0.95;;
77451;SDS011;66537;52.370;4.832;2023-04-25T06:33:57;9.00;;;1.17;;
77451;SDS011;66537;52.370;4.832;2023-04-25T06:36:23;7.03;;;1.45;;
77451;SDS011;66537;52.370;4.832;2023-04-25T06:38:50;5.30;;;0.65;;
77451;SDS011;66537;52.370;4.832;2023-04-25T06:41:19;4.18;;;0.50;;
77451;SDS011;66537;52.370;4.832;2023-04-25T06:43:45;4.22;;;0.32;;
77451;SDS011;66537;52.370;4.832;2023-04-25T06:46:10;4.13;;;0.40;;
77451;SDS011;66537;52.370;4.832;2023-04-25T06:48:36;7.18;;;0.77;;
77451;SDS011;66537;52.370;4.832;2023-04-25T06:51:01;7.10;;;0.50;;
77451;SDS011;66537;52.370;4.832;2023-04-25T06:53:27;9.32;;;0.82;;
77451;SDS011;66537;52.370;4.832;2023-04-25T06:55:52;13.30;;;1.23;;
77451;SDS011;66537;52.370;4.832;2023-04-25T06:58:18;6.38;;;0.90;;
77451;SDS011;66537;52.370;4.832;2023-04-25T07:00:43;8.90;;;1.13;;
77451;SDS011;66537;52.370;4.832;2023-04-25T07:03:09;7.97;;;0.73;;
77451;SDS011;66537;52.370;4.832;2023-04-25T07:05:34;11.65;;;1.63;;
77451;SDS011;66537;52.370;4.832;2023-04-25T07:08:00;8.55;;;0.95;;
77451;SDS011;66537;52.370;4.832;2023-04-25T07:10:25;6.07;;;1.00;;
77451;SDS011;66537;52.370;4.832;2023-04-25T07:12:51;10.90;;;1.08;;
77451;SDS011;66537;52.370;4.832;2023-04-25T07:15:16;10.60;;;1.15;;
77451;SDS011;66537;52.370;4.832;2023-04-25T07:17:41;10.63;;;1.00;;
77451;SDS011;66537;52.370;4.832;2023-04-25T07:20:07;10.18;;;1.30;;
77451;SDS011;66537;52.370;4.832;2023-04-25T07:22:34;11.38;;;1.30;;
77451;SDS011;66537;52.370;4.832;2023-04-25T07:24:59;8.60;;;1.20;;
77451;SDS011;66537;52.370;4.832;2023-04-25T07:27:25;9.73;;;1.17;;
77451;SDS011;66537;52.370;4.832;2023-04-25T07:29:50;8.23;;;0.90;;
77451;SDS011;66537;52.370;4.832;2023-04-25T07:32:15;9.20;;;0.80;;
77451;SDS011;66537;52.370;4.832;2023-04-25T07:34:41;8.90;;;1.27;;
77451;SDS011;66537;52.370;4.832;2023-04-25T07:37:06;6.63;;;1.17;;
77451;SDS011;66537;52.370;4.832;2023-04-25T07:39:35;6.35;;;1.00;;
77451;SDS011;66537;52.370;4.832;2023-04-25T07:42:02;10.20;;;1.33;;
77451;SDS011;66537;52.370;4.832;2023-04-25T07:44:28;8.50;;;0.70;;
77451;SDS011;66537;52.370;4.832;2023-04-25T07:46:55;8.98;;;1.35;;
77451;SDS011;66537;52.370;4.832;2023-04-25T07:49:21;7.03;;;0.80;;
77451;SDS011;66537;52.370;4.832;2023-04-25T07:51:46;10.25;;;1.05;;
77451;SDS011;66537;52.370;4.832;2023-04-25T07:54:15;11.18;;;1.30;;
77451;SDS011;66537;52.370;4.832;2023-04-25T07:56:42;7.88;;;1.02;;
77451;SDS011;66537;52.370;4.832;2023-04-25T07:59:07;12.63;;;1.55;;
77451;SDS011;66537;52.370;4.832;2023-04-25T08:01:33;10.57;;;1.13;;
77451;SDS011;66537;52.370;4.832;2023-04-25T08:03:59;9.85;;;0.80;;
77451;SDS011;66537;52.370;4.832;2023-04-25T08:06:24;9.52;;;1.10;;
77451;SDS011;66537;52.370;4.832;2023-04-25T08:08:50;8.35;;;1.30;;
77451;SDS011;66537;52.370;4.832;2023-04-25T08:11:16;11.73;;;2.00;;
77451;SDS011;66537;52.370;4.832;2023-04-25T08:13:41;9.63;;;1.00;;
77451;SDS011;66537;52.370;4.832;2023-04-25T08:16:06;10.80;;;0.90;;
77451;SDS011;66537;52.370;4.832;2023-04-25T08:18:32;7.13;;;1.20;;
77451;SDS011;66537;52.370;4.832;2023-04-25T08:20:57;6.40;;;0.80;;
77451;SDS011;66537;52.370;4.832;2023-04-25T08:23:22;5.85;;;0.70;;
77451;SDS011;66537;52.370;4.832;2023-04-25T08:25:48;6.38;;;0.70;;
77451;SDS011;66537;52.370;4.832;2023-04-25T08:28:14;7.85;;;0.80;;
77451;SDS011;66537;52.370;4.832;2023-04-25T08:30:40;6.28;;;0.80;;
77451;SDS011;66537;52.370;4.832;2023-04-25T08:33:05;11.52;;;1.00;;
77451;SDS011;66537;52.370;4.832;2023-04-25T08:35:31;8.27;;;0.80;;
77451;SDS011;66537;52.370;4.832;2023-04-25T08:37:57;9.68;;;0.98;;
77451;SDS011;66537;52.370;4.832;2023-04-25T08:40:23;9.38;;;0.82;;
77451;SDS011;66537;52.370;4.832;2023-04-25T08:42:55;9.80;;;0.85;;
77451;SDS011;66537;52.370;4.832;2023-04-25T08:45:22;9.65;;;1.02;;
77451;SDS011;66537;52.370;4.832;2023-04-25T08:47:47;9.02;;;0.88;;
77451;SDS011;66537;52.370;4.832;2023-04-25T08:50:17;9.68;;;1.15;;
77451;SDS011;66537;52.370;4.832;2023-04-25T08:52:44;8.50;;;1.00;;
77451;SDS011;66537;52.370;4.832;2023-04-25T08:55:14;9.55;;;1.10;;
77451;SDS011;66537;52.370;4.832;2023-04-25T08:57:41;7.20;;;1.25;;
77451;SDS011;66537;52.370;4.832;2023-04-25T09:00:11;9.73;;;0.55;;
77451;SDS011;66537;52.370;4.832;2023-04-25T09:02:38;7.93;;;0.85;;
77451;SDS011;66537;52.370;4.832;2023-04-25T09:05:05;5.28;;;0.70;;
77451;SDS011;66537;52.370;4.832;2023-04-25T09:07:31;6.32;;;0.65;;
77451;SDS011;66537;52.370;4.832;2023-04-25T09:09:57;10.45;;;0.90;;
77451;SDS011;66537;52.370;4.832;2023-04-25T09:12:28;8.38;;;1.15;;
77451;SDS011;66537;52.370;4.832;2023-04-25T09:15:03;8.32;;;0.65;;
77451;SDS011;66537;52.370;4.832;2023-04-25T09:17:33;6.10;;;0.85;;
77451;SDS011;66537;52.370;4.832;2023-04-25T09:20:09;6.38;;;0.80;;
77451;SDS011;66537;52.370;4.832;2023-04-25T09:22:37;10.27;;;0.85;;
77451;SDS011;66537;52.370;4.832;2023-04-25T09:25:10;6.47;;;0.73;;
77451;SDS011;66537;52.370;4.832;2023-04-25T09:27:36;7.20;;;0.80;;
77451;SDS011;66537;52.370;4.832;2023-04-25T09:30:01;7.13;;;0.98;;
77451;SDS011;66537;52.370;4.832;2023-04-25T09:32:27;6.93;;;1.20;;
77451;SDS011;66537;52.370;4.832;2023-04-25T09:34:56;5.38;;;1.00;;
77451;SDS011;66537;52.370;4.832;2023-04-25T09:37:23;8.55;;;1.02;;
77451;SDS011;66537;52.370;4.832;2023-04-25T09:39:54;7.63;;;0.80;;
77451;SDS011;66537;52.370;4.832;2023-04-25T09:42:25;7.30;;;0.65;;
77451;SDS011;66537;52.370;4.832;2023-04-25T09:44:54;8.65;;;0.93;;
77451;SDS011;66537;52.370;4.832;2023-04-25T09:47:20;8.55;;;0.88;;
77451;SDS011;66537;52.370;4.832;2023-04-25T09:49:48;11.80;;;1.45;;
77451;SDS011;66537;52.370;4.832;2023-04-25T09:52:15;9.45;;;1.60;;
77451;SDS011;66537;52.370;4.832;2023-04-25T09:54:42;5.78;;;0.75;;
77451;SDS011;66537;52.370;4.832;2023-04-25T09:57:12;7.70;;;0.90;;
77451;SDS011;66537;52.370;4.832;2023-04-25T09:59:39;9.38;;;0.93;;
77451;SDS011;66537;52.370;4.832;2023-04-25T10:02:07;11.40;;;1.20;;
77451;SDS011;66537;52.370;4.832;2023-04-25T10:04:34;4.43;;;0.50;;
77451;SDS011;66537;52.370;4.832;2023-04-25T10:07:01;4.22;;;0.60;;
77451;SDS011;66537;52.370;4.832;2023-04-25T10:09:30;6.95;;;0.70;;
77451;SDS011;66537;52.370;4.832;2023-04-25T10:11:59;5.22;;;0.52;;
77451;SDS011;66537;52.370;4.832;2023-04-25T10:14:25;7.30;;;1.05;;
77451;SDS011;66537;52.370;4.832;2023-04-25T10:16:51;5.57;;;0.80;;
77451;SDS011;66537;52.370;4.832;2023-04-25T10:19:19;6.05;;;0.85;;
77451;SDS011;66537;52.370;4.832;2023-04-25T10:21:52;7.35;;;1.00;;
77451;SDS011;66537;52.370;4.832;2023-04-25T10:24:20;7.88;;;1.30;;
77451;SDS011;66537;52.370;4.832;2023-04-25T10:26:46;5.95;;;0.93;;
77451;SDS011;66537;52.370;4.832;2023-04-25T10:29:15;10.25;;;1.27;;
77451;SDS011;66537;52.370;4.832;2023-04-25T10:31:47;8.18;;;1.23;;
77451;SDS011;66537;52.370;4.832;2023-04-25T10:34:13;10.25;;;0.90;;
77451;SDS011;66537;52.370;4.832;2023-04-25T10:36:38;10.35;;;1.13;;
77451;SDS011;66537;52.370;4.832;2023-04-25T10:39:05;10.38;;;1.27;;
77451;SDS011;66537;52.370;4.832;2023-04-25T10:41:47;7.18;;;0.80;;
77451;SDS011;66537;52.370;4.832;2023-04-25T10:44:16;11.32;;;1.60;;
77451;SDS011;66537;52.370;4.832;2023-04-25T10:46:42;9.23;;;1.23;;
77451;SDS011;66537;52.370;4.832;2023-04-25T10:49:09;7.63;;;0.70;;
77451;SDS011;66537;52.370;4.832;2023-04-25T10:51:36;8.85;;;1.13;;
77451;SDS011;66537;52.370;4.832;2023-04-25T10:54:02;8.35;;;1.17;;
77451;SDS011;66537;52.370;4.832;2023-04-25T11:01:40;9.65;;;1.30;;
77451;SDS011;66537;52.370;4.832;2023-04-25T11:04:18;13.05;;;1.13;;
77451;SDS011;66537;52.370;4.832;2023-04-25T11:09:29;5.78;;;0.90;;
77451;SDS011;66537;52.370;4.832;2023-04-25T11:11:55;5.75;;;1.25;;
77451;SDS011;66537;52.370;4.832;2023-04-25T11:14:22;7.88;;;0.88;;
77451;SDS011;66537;52.370;4.832;2023-04-25T11:16:52;7.80;;;1.20;;
77451;SDS011;66537;52.370;4.832;2023-04-25T11:19:19;6.25;;;0.85;;
77451;SDS011;66537;52.370;4.832;2023-04-25T11:21:45;5.20;;;0.68;;
77451;SDS011;66537;52.370;4.832;2023-04-25T11:24:10;7.60;;;0.70;;
77451;SDS011;66537;52.370;4.832;2023-04-25T11:26:36;6.43;;;0.50;;
77451;SDS011;66537;52.370;4.832;2023-04-25T11:29:02;5.72;;;0.80;;
77451;SDS011;66537;52.370;4.832;2023-04-25T11:31:28;8.32;;;0.80;;
77451;SDS011;66537;52.370;4.832;2023-04-25T11:33:56;9.40;;;0.80;;
77451;SDS011;66537;52.370;4.832;2023-04-25T11:36:22;12.05;;;1.35;;
77451;SDS011;66537;52.370;4.832;2023-04-25T11:38:51;11.38;;;0.88;;
77451;SDS011;66537;52.370;4.832;2023-04-25T11:41:18;10.73;;;1.33;;
77451;SDS011;66537;52.370;4.832;2023-04-25T11:43:44;15.15;;;1.40;;
77451;SDS011;66537;52.370;4.832;2023-04-25T11:46:09;7.55;;;0.80;;
77451;SDS011;66537;52.370;4.832;2023-04-25T11:48:38;7.75;;;1.10;;
77451;SDS011;66537;52.370;4.832;2023-04-25T11:51:07;11.82;;;1.25;;
77451;SDS011;66537;52.370;4.832;2023-04-25T11:53:33;10.57;;;1.05;;
77451;SDS011;66537;52.370;4.832;2023-04-25T11:55:59;7.95;;;1.20;;
77451;SDS011;66537;52.370;4.832;2023-04-25T11:58:25;21.48;;;6.85;;
77451;SDS011;66537;52.370;4.832;2023-04-25T12:00:51;8.05;;;1.35;;
77451;SDS011;66537;52.370;4.832;2023-04-25T12:03:17;7.17;;;0.63;;
77451;SDS011;66537;52.370;4.832;2023-04-25T12:05:43;9.27;;;1.02;;
77451;SDS011;66537;52.370;4.832;2023-04-25T12:08:13;6.80;;;0.65;;
77451;SDS011;66537;52.370;4.832;2023-04-25T12:10:39;4.85;;;0.52;;
77451;SDS011;66537;52.370;4.832;2023-04-25T12:13:21;11.55;;;1.35;;
77451;SDS011;66537;52.370;4.832;2023-04-25T12:15:47;5.60;;;1.35;;
77451;SDS011;66537;52.370;4.832;2023-04-25T12:18:12;10.60;;;1.40;;
77451;SDS011;66537;52.370;4.832;2023-04-25T12:20:38;9.97;;;1.00;;
77451;SDS011;66537;52.370;4.832;2023-04-25T12:23:05;7.80;;;1.00;;
77451;SDS011;66537;52.370;4.832;2023-04-25T12:33:21;5.10;;;0.77;;
77451;SDS011;66537;52.370;4.832;2023-04-25T12:35:50;8.98;;;1.25;;
77451;SDS011;66537;52.370;4.832;2023-04-25T12:38:24;13.35;;;1.08;;
77451;SDS011;66537;52.370;4.832;2023-04-25T12:40:51;10.05;;;1.08;;
77451;SDS011;66537;52.370;4.832;2023-04-25T12:43:17;9.82;;;1.55;;
77451;SDS011;66537;52.370;4.832;2023-04-25T12:45:43;13.02;;;1.23;;
77451;SDS011;66537;52.370;4.832;2023-04-25T12:48:09;11.18;;;1.13;;
77451;SDS011;66537;52.370;4.832;2023-04-25T12:50:35;10.65;;;1.35;;
77451;SDS011;66537;52.370;4.832;2023-04-25T12:53:00;7.47;;;0.80;;
77451;SDS011;66537;52.370;4.832;2023-04-25T12:55:25;12.13;;;1.47;;
77451;SDS011;66537;52.370;4.832;2023-04-25T12:57:51;10.17;;;1.10;;
77451;SDS011;66537;52.370;4.832;2023-04-25T13:00:17;12.05;;;1.15;;
77451;SDS011;66537;52.370;4.832;2023-04-25T13:02:44;7.93;;;1.25;;
77451;SDS011;66537;52.370;4.832;2023-04-25T13:05:11;13.90;;;1.33;;
77451;SDS011;66537;52.370;4.832;2023-04-25T13:07:36;10.20;;;2.67;;
77451;SDS011;66537;52.370;4.832;2023-04-25T13:10:01;8.17;;;1.10;;
77451;SDS011;66537;52.370;4.832;2023-04-25T13:12:28;14.40;;;1.40;;
77451;SDS011;66537;52.370;4.832;2023-04-25T13:14:53;10.07;;;0.85;;
77451;SDS011;66537;52.370;4.832;2023-04-25T13:17:18;9.90;;;1.33;;
77451;SDS011;66537;52.370;4.832;2023-04-25T13:19:44;11.00;;;0.80;;
77451;SDS011;66537;52.370;4.832;2023-04-25T13:22:09;9.23;;;1.00;;
77451;SDS011;66537;52.370;4.832;2023-04-25T13:24:35;7.50;;;0.77;;
77451;SDS011;66537;52.370;4.832;2023-04-25T13:27:00;9.35;;;1.27;;
77451;SDS011;66537;52.370;4.832;2023-04-25T13:29:26;8.05;;;1.00;;
77451;SDS011;66537;52.370;4.832;2023-04-25T13:31:51;8.43;;;1.35;;
77451;SDS011;66537;52.370;4.832;2023-04-25T13:34:17;7.00;;;0.77;;
77451;SDS011;66537;52.370;4.832;2023-04-25T13:36:42;6.32;;;0.70;;
77451;SDS011;66537;52.370;4.832;2023-04-25T13:39:07;6.20;;;0.80;;
77451;SDS011;66537;52.370;4.832;2023-04-25T13:41:33;9.52;;;0.95;;
77451;SDS011;66537;52.370;4.832;2023-04-25T13:43:58;9.88;;;0.85;;
77451;SDS011;66537;52.370;4.832;2023-04-25T13:46:24;7.10;;;1.05;;
77451;SDS011;66537;52.370;4.832;2023-04-25T13:48:49;10.73;;;1.30;;
77451;SDS011;66537;52.370;4.832;2023-04-25T13:51:15;5.20;;;0.60;;
77451;SDS011;66537;52.370;4.832;2023-04-25T13:53:41;6.50;;;0.90;;
77451;SDS011;66537;52.370;4.832;2023-04-25T13:56:06;8.83;;;0.70;;
77451;SDS011;66537;52.370;4.832;2023-04-25T13:58:32;10.63;;;1.05;;
77451;SDS011;66537;52.370;4.832;2023-04-25T14:00:57;6.00;;;1.10;;
77451;SDS011;66537;52.370;4.832;2023-04-25T14:03:23;9.98;;;0.80;;
77451;SDS011;66537;52.370;4.832;2023-04-25T14:05:48;8.90;;;1.00;;
77451;SDS011;66537;52.370;4.832;2023-04-25T14:08:14;8.35;;;1.67;;
77451;SDS011;66537;52.370;4.832;2023-04-25T14:10:39;10.93;;;1.02;;
77451;SDS011;66537;52.370;4.832;2023-04-25T14:13:05;11.60;;;1.42;;
77451;SDS011;66537;52.370;4.832;2023-04-25T14:15:32;6.43;;;1.00;;
77451;SDS011;66537;52.370;4.832;2023-04-25T14:17:57;7.15;;;0.90;;
77451;SDS011;66537;52.370;4.832;2023-04-25T14:20:23;4.97;;;1.05;;
77451;SDS011;66537;52.370;4.832;2023-04-25T14:22:48;7.88;;;1.25;;
77451;SDS011;66537;52.370;4.832;2023-04-25T14:25:14;6.10;;;0.88;;
77451;SDS011;66537;52.370;4.832;2023-04-25T14:27:39;5.40;;;0.82;;
77451;SDS011;66537;52.370;4.832;2023-04-25T14:30:05;8.73;;;1.58;;
77451;SDS011;66537;52.370;4.832;2023-04-25T14:32:31;8.93;;;1.00;;
77451;SDS011;66537;52.370;4.832;2023-04-25T14:34:57;10.23;;;1.40;;
77451;SDS011;66537;52.370;4.832;2023-04-25T14:37:22;10.23;;;1.52;;
77451;SDS011;66537;52.370;4.832;2023-04-25T14:39:47;7.90;;;1.00;;
77451;SDS011;66537;52.370;4.832;2023-04-25T14:42:13;12.80;;;1.93;;
77451;SDS011;66537;52.370;4.832;2023-04-25T14:44:38;8.23;;;1.27;;
77451;SDS011;66537;52.370;4.832;2023-04-25T14:47:03;14.73;;;1.38;;
77451;SDS011;66537;52.370;4.832;2023-04-25T14:49:29;11.02;;;1.20;;